Time;durP1;ratioP1;P1;durP2;ratioP2;P2;SDS_P1;SDS_P2;PMS_P1;PMS_P2;Temp;Humidity;BMP_temperature;BMP_pressure;BME280_temperature;BME280_humidity;BME280_pressure;Samples;Min_cycle;Max_cycle;Signal;HPM_P1;HPM_P2
2021/10/24 04:00:43;;;;;;;5.27;1.67;;;-0.20;96.30;;;;;;5818551;23;20490;-77
2021/10/24 04:03:09;;;;;;;4.70;1.20;;;-0.20;96.30;;;;;;4989425;28;20528;-77
2021/10/24 04:05:35;;;;;;;7.37;1.53;;;-0.30;96.30;;;;;;4974099;28;20186;-77
2021/10/24 04:08:02;;;;;;;10.80;1.50;;;-0.30;96.30;;;;;;4975419;28;20189;-79
2021/10/24 04:10:28;;;;;;;5.80;1.50;;;-0.30;96.30;;;;;;4973794;28;20831;-77
2021/10/24 04:12:54;;;;;;;9.17;1.67;;;-0.30;96.30;;;;;;4973466;28;20956;-76
2021/10/24 04:15:22;;;;;;;2.97;1.63;;;-0.30;96.30;;;;;;4978455;28;20831;-79
2021/10/24 04:17:48;;;;;;;2.30;1.43;;;-0.20;96.30;;;;;;4995436;28;20901;-78
2021/10/24 04:20:18;;;;;;;3.77;1.43;;;-0.20;96.30;;;;;;4979406;28;20422;-78
2021/10/24 04:22:44;;;;;;;3.37;1.53;;;-0.10;96.30;;;;;;4982466;28;20434;-80
2021/10/24 04:25:11;;;;;;;2.57;1.27;;;-0.10;96.30;;;;;;5005564;28;20453;-80
2021/10/24 04:27:37;;;;;;;7.30;2.40;;;-0.10;96.30;;;;;;4997407;28;20430;-78
2021/10/24 04:30:05;;;;;;;4.10;1.77;;;-0.20;96.30;;;;;;5001311;28;20496;-79
2021/10/24 04:32:31;;;;;;;7.40;2.90;;;-0.30;96.30;;;;;;4996034;28;20194;-79
2021/10/24 04:34:56;;;;;;;3.07;1.80;;;-0.30;96.30;;;;;;4995083;28;20450;-80
2021/10/24 04:37:22;;;;;;;5.90;1.80;;;-0.40;96.30;;;;;;4996801;28;20585;-79
2021/10/24 04:39:47;;;;;;;2.53;1.57;;;-0.40;96.30;;;;;;4996896;28;20189;-80
2021/10/24 04:42:13;;;;;;;3.43;1.50;;;-0.40;96.30;;;;;;4995683;28;20269;-80
2021/10/24 04:44:39;;;;;;;5.67;1.93;;;-0.40;96.30;;;;;;4995403;28;20221;-79
2021/10/24 04:47:05;;;;;;;13.50;1.80;;;-0.30;96.30;;;;;;4995522;28;20216;-80
2021/10/24 04:49:31;;;;;;;3.60;1.87;;;-0.30;96.30;;;;;;4997282;28;20259;-80
2021/10/24 04:51:56;;;;;;;2.47;1.17;;;-0.20;96.30;;;;;;4994678;28;20440;-79
2021/10/24 04:54:23;;;;;;;7.60;2.03;;;-0.20;96.30;;;;;;4997017;28;20499;-81
2021/10/24 04:56:49;;;;;;;2.30;1.50;;;-0.20;96.30;;;;;;4996856;28;20585;-80
2021/10/24 04:59:15;;;;;;;4.27;2.03;;;-0.30;96.30;;;;;;4996356;28;20413;-79
2021/10/24 05:01:42;;;;;;;3.90;2.00;;;-0.40;96.30;;;;;;4994818;28;20806;-80
2021/10/24 05:04:08;;;;;;;8.27;2.27;;;-0.40;96.30;;;;;;4995862;28;20687;-80
2021/10/24 05:06:33;;;;;;;2.00;1.23;;;-0.50;96.30;;;;;;4994943;28;20413;-79
2021/10/24 05:08:59;;;;;;;3.27;1.50;;;-0.50;96.30;;;;;;4995306;28;20181;-78
2021/10/24 05:11:24;;;;;;;9.93;2.10;;;-0.50;96.30;;;;;;4994127;28;20213;-79
2021/10/24 05:13:49;;;;;;;1.30;1.20;;;-0.60;96.30;;;;;;4996431;28;20629;-80
2021/10/24 05:16:15;;;;;;;6.47;2.00;;;-0.60;96.30;;;;;;4995292;28;20181;-79
2021/10/24 05:18:40;;;;;;;5.77;1.90;;;-0.70;96.30;;;;;;4995836;28;20173;-80
2021/10/24 05:21:06;;;;;;;8.37;2.27;;;-0.60;96.30;;;;;;4993852;28;20202;-80
2021/10/24 05:23:31;;;;;;;3.53;1.67;;;-0.70;96.30;;;;;;4996311;28;20227;-80
2021/10/24 05:25:58;;;;;;;3.73;2.07;;;-0.70;96.30;;;;;;4996006;28;20251;-80
2021/10/24 05:28:24;;;;;;;4.33;1.60;;;-0.80;96.30;;;;;;4980781;28;20182;-79
2021/10/24 05:30:50;;;;;;;3.23;1.70;;;-0.90;96.30;;;;;;4976207;28;20468;-78
2021/10/24 05:33:15;;;;;;;3.83;1.73;;;-1.00;96.30;;;;;;4975076;28;20422;-79
2021/10/24 05:35:41;;;;;;;3.47;2.00;;;-1.10;96.30;;;;;;4976518;28;20181;-80
2021/10/24 05:38:06;;;;;;;2.00;1.50;;;-1.10;96.30;;;;;;4974915;28;20549;-79
2021/10/24 05:40:32;;;;;;;2.27;1.80;;;-1.10;96.30;;;;;;4976558;28;20178;-78
2021/10/24 05:42:57;;;;;;;3.30;1.60;;;-1.10;96.30;;;;;;4973741;28;20217;-78
2021/10/24 05:45:23;;;;;;;4.63;2.10;;;-1.20;96.30;;;;;;4974409;28;20657;-80
2021/10/24 05:47:48;;;;;;;8.27;2.13;;;-1.00;96.30;;;;;;4974907;28;20178;-80
2021/10/24 05:50:14;;;;;;;7.17;2.53;;;-1.00;96.30;;;;;;4973688;28;20202;-80
2021/10/24 05:52:39;;;;;;;4.43;2.53;;;-1.00;96.30;;;;;;4975094;28;20186;-80
2021/10/24 05:55:05;;;;;;;9.93;2.80;;;-1.00;96.30;;;;;;4973798;28;20186;-79
2021/10/24 05:57:31;;;;;;;3.47;2.40;;;-0.80;96.30;;;;;;4975321;28;20170;-80
2021/10/24 05:59:57;;;;;;;3.90;2.07;;;-0.80;96.30;;;;;;4975250;28;20966;-80
2021/10/24 06:02:22;;;;;;;6.53;2.60;;;-0.50;96.30;;;;;;4974075;28;20268;-80
2021/10/24 06:04:47;;;;;;;6.83;2.30;;;0.20;96.30;;;;;;4974451;28;20265;-81
2021/10/24 06:07:13;;;;;;;5.57;2.63;;;0.80;96.30;;;;;;4975449;28;20186;-81
2021/10/24 06:09:41;;;;;;;5.73;2.70;;;1.30;96.30;;;;;;4973146;28;20230;-81
2021/10/24 06:12:13;;;;;;;6.50;2.10;;;2.10;96.30;;;;;;4972104;28;20194;-82
2021/10/24 06:14:40;;;;;;;7.80;2.37;;;2.50;96.30;;;;;;4971656;28;20413;-81
2021/10/24 06:17:08;;;;;;;8.33;3.30;;;3.30;96.30;;;;;;4973604;28;20497;-82
2021/10/24 06:19:35;;;;;;;5.47;1.93;;;3.70;96.30;;;;;;4973605;28;20421;-82
2021/10/24 06:22:00;;;;;;;4.30;1.97;;;4.10;96.30;;;;;;4973730;28;20433;-82
2021/10/24 06:24:26;;;;;;;6.87;2.30;;;4.20;96.30;;;;;;4972026;28;20488;-81
2021/10/24 06:26:51;;;;;;;4.17;2.13;;;4.50;96.30;;;;;;4971516;28;20187;-80
2021/10/24 06:29:17;;;;;;;4.10;2.10;;;4.80;96.30;;;;;;4972842;28;20190;-80
2021/10/24 06:31:42;;;;;;;12.37;2.80;;;5.20;96.30;;;;;;4972343;28;20194;-81
2021/10/24 06:34:08;;;;;;;4.10;2.33;;;5.70;96.30;;;;;;4978197;28;20178;-79
2021/10/24 06:36:34;;;;;;;8.97;2.63;;;5.10;96.30;;;;;;4990969;28;20176;-80
2021/10/24 06:39:00;;;;;;;7.00;2.77;;;4.90;96.30;;;;;;4992146;28;20165;-81
2021/10/24 06:41:25;;;;;;;5.63;2.33;;;5.60;96.30;;;;;;4992438;28;20451;-82
2021/10/24 06:43:51;;;;;;;3.10;1.90;;;5.30;96.30;;;;;;4994627;28;20180;-82
2021/10/24 06:46:16;;;;;;;7.80;2.40;;;5.00;96.30;;;;;;4994464;28;20186;-82
2021/10/24 06:48:42;;;;;;;10.03;3.50;;;5.00;96.30;;;;;;4981586;28;20193;-80
2021/10/24 06:51:07;;;;;;;11.67;3.00;;;5.10;96.30;;;;;;4976728;28;20206;-79
2021/10/24 06:53:33;;;;;;;5.43;2.30;;;4.90;96.30;;;;;;4972461;28;20180;-80
2021/10/24 06:55:58;;;;;;;6.43;2.13;;;4.70;96.30;;;;;;4972859;28;20182;-79
2021/10/24 06:58:24;;;;;;;5.80;2.43;;;4.50;96.30;;;;;;4973854;28;20210;-78
2021/10/24 07:00:49;;;;;;;8.30;3.10;;;4.40;96.30;;;;;;4976071;28;20218;-78
2021/10/24 07:03:15;;;;;;;11.53;3.97;;;4.00;96.30;;;;;;4974382;28;20185;-79
2021/10/24 07:05:42;;;;;;;7.33;3.20;;;3.80;96.30;;;;;;4976372;28;20178;-78
2021/10/24 07:08:07;;;;;;;8.67;3.30;;;3.80;96.30;;;;;;4975047;28;20274;-78
2021/10/24 07:10:33;;;;;;;8.80;3.17;;;3.70;96.30;;;;;;4974617;28;20560;-78
2021/10/24 07:12:58;;;;;;;9.27;4.00;;;3.70;96.30;;;;;;4974430;28;20175;-79
2021/10/24 07:15:24;;;;;;;10.00;3.30;;;3.60;96.30;;;;;;4975805;28;20295;-79
2021/10/24 07:17:50;;;;;;;15.60;4.80;;;3.70;96.30;;;;;;4975561;28;20178;-78
2021/10/24 07:20:16;;;;;;;16.33;6.70;;;3.70;96.30;;;;;;4976058;28;20257;-78
2021/10/24 07:22:42;;;;;;;6.23;3.20;;;3.70;96.30;;;;;;4975501;28;20508;-77
2021/10/24 07:25:08;;;;;;;8.90;3.23;;;3.80;96.30;;;;;;4974692;28;20181;-77
2021/10/24 07:27:34;;;;;;;6.17;3.03;;;3.90;96.30;;;;;;4974712;28;20178;-77
2021/10/24 07:29:59;;;;;;;6.30;3.70;;;4.00;96.30;;;;;;4974425;28;20508;-77
2021/10/24 07:32:25;;;;;;;7.13;4.00;;;4.10;96.30;;;;;;4974938;28;20205;-77
2021/10/24 07:34:50;;;;;;;7.80;3.33;;;4.10;96.30;;;;;;4975566;28;20186;-77
2021/10/24 07:37:16;;;;;;;5.70;3.37;;;4.20;96.30;;;;;;4975381;28;20623;-77
2021/10/24 07:39:42;;;;;;;13.47;4.90;;;4.30;96.30;;;;;;4974349;28;20269;-78
2021/10/24 07:42:09;;;;;;;8.93;3.80;;;4.30;96.30;;;;;;4974655;28;20209;-76
2021/10/24 07:44:35;;;;;;;8.97;3.73;;;4.40;96.30;;;;;;4975525;28;20418;-77
2021/10/24 07:47:00;;;;;;;9.83;3.60;;;4.50;96.30;;;;;;4975455;28;20425;-77
2021/10/24 07:49:27;;;;;;;8.40;3.37;;;4.50;96.30;;;;;;4979412;28;20209;-79
2021/10/24 07:51:52;;;;;;;6.90;3.20;;;4.60;96.30;;;;;;4993958;28;20200;-77
2021/10/24 07:54:18;;;;;;;9.83;2.83;;;4.70;96.30;;;;;;4994785;28;20413;-79
2021/10/24 07:56:44;;;;;;;6.03;3.10;;;4.90;96.30;;;;;;4994612;28;20176;-76
2021/10/24 07:59:09;;;;;;;6.47;2.73;;;4.90;96.30;;;;;;4994423;28;20828;-77
2021/10/24 08:01:39;;;;;;;5.30;2.50;;;5.00;96.30;;;;;;4992523;28;20217;-78
2021/10/24 08:04:07;;;;;;;6.90;2.53;;;5.10;96.30;;;;;;4993247;28;20209;-76
2021/10/24 08:06:36;;;;;;;5.50;2.93;;;5.20;96.30;;;;;;4990579;28;20480;-79
2021/10/24 08:09:09;;;;;;;7.10;1.90;;;5.30;96.30;;;;;;4974494;28;20774;-77
2021/10/24 08:11:35;;;;;;;9.50;2.67;;;5.30;96.30;;;;;;4972396;28;20824;-77
2021/10/24 08:14:02;;;;;;;8.63;2.70;;;5.40;96.30;;;;;;4978772;28;20409;-77
2021/10/24 08:16:28;;;;;;;5.43;2.93;;;5.60;96.30;;;;;;4993025;28;20264;-76
2021/10/24 08:18:54;;;;;;;6.77;2.50;;;5.70;96.30;;;;;;4990422;28;20507;-77
2021/10/24 08:21:20;;;;;;;5.30;2.60;;;5.80;96.30;;;;;;4974099;28;20545;-76
2021/10/24 08:23:45;;;;;;;6.37;3.00;;;5.90;96.30;;;;;;4973297;28;20186;-77
2021/10/24 08:26:12;;;;;;;6.80;2.57;;;5.90;96.30;;;;;;4985881;28;20464;-77
2021/10/24 08:28:38;;;;;;;9.47;2.83;;;6.00;96.30;;;;;;4978147;28;20178;-78
2021/10/24 08:31:04;;;;;;;10.50;2.40;;;6.20;96.30;;;;;;4976061;28;20465;-77
2021/10/24 08:33:30;;;;;;;6.20;2.17;;;6.30;96.30;;;;;;4983777;28;20170;-78
2021/10/24 08:36:00;;;;;;;5.20;2.43;;;6.50;96.30;;;;;;4987432;28;20429;-78
2021/10/24 08:38:27;;;;;;;4.47;2.53;;;6.50;96.30;;;;;;4980610;28;20784;-77
2021/10/24 08:40:53;;;;;;;7.23;2.60;;;6.60;96.30;;;;;;4974225;28;20473;-77
2021/10/24 08:43:27;;;;;;;10.33;2.80;;;6.60;96.30;;;;;;4975319;28;20432;-77
2021/10/24 08:45:52;;;;;;;6.73;2.17;;;6.70;96.30;;;;;;4974788;28;20823;-77
2021/10/24 08:48:18;;;;;;;7.57;2.10;;;6.90;96.30;;;;;;4985340;28;20440;-79
2021/10/24 08:50:45;;;;;;;6.73;2.40;;;6.80;96.30;;;;;;4987932;28;20225;-78
2021/10/24 08:53:13;;;;;;;6.50;1.67;;;6.90;96.30;;;;;;4984986;28;20638;-79
2021/10/24 08:55:41;;;;;;;7.20;1.80;;;7.00;96.30;;;;;;4973283;28;20443;-79
2021/10/24 08:58:07;;;;;;;6.43;1.77;;;7.10;96.30;;;;;;4973007;28;20418;-79
2021/10/24 09:00:32;;;;;;;4.93;1.43;;;7.20;96.30;;;;;;4972931;28;20441;-78
2021/10/24 09:03:01;;;;;;;2.90;1.10;;;7.40;96.30;;;;;;4972497;28;20493;-79
2021/10/24 09:05:33;;;;;;;4.00;1.30;;;7.50;96.30;;;;;;4974127;28;20249;-77
2021/10/24 09:08:00;;;;;;;6.20;1.90;;;7.50;96.30;;;;;;4974313;28;20410;-78
2021/10/24 09:10:37;;;;;;;4.60;1.77;;;7.70;96.30;;;;;;4973076;28;20469;-79
2021/10/24 09:13:04;;;;;;;2.60;1.20;;;8.40;96.30;;;;;;4973865;28;20410;-79
2021/10/24 09:15:43;;;;;;;3.90;1.10;;;8.90;96.30;;;;;;4972884;28;20460;-79
2021/10/24 09:18:09;;;;;;;5.77;1.60;;;9.30;96.30;;;;;;4974400;28;20389;-79
2021/10/24 09:20:35;;;;;;;7.60;1.30;;;9.40;96.30;;;;;;4974799;28;20977;-78
2021/10/24 09:23:09;;;;;;;3.50;1.20;;;9.90;96.30;;;;;;4975346;28;20413;-78
2021/10/24 09:25:51;;;;;;;9.47;1.50;;;10.20;96.30;;;;;;4976839;28;20182;-78
2021/10/24 09:28:20;;;;;;;4.60;1.17;;;10.20;96.30;;;;;;4991159;28;20787;-78
2021/10/24 09:30:47;;;;;;;3.70;1.13;;;10.60;96.30;;;;;;4994685;28;21044;-78
2021/10/24 09:33:13;;;;;;;5.10;1.70;;;10.10;96.30;;;;;;4994493;28;20405;-79
2021/10/24 09:35:44;;;;;;;4.77;1.20;;;10.10;96.30;;;;;;4994710;28;20409;-79
2021/10/24 09:38:16;;;;;;;6.50;1.67;;;10.20;96.30;;;;;;4994432;28;20405;-79
2021/10/24 09:40:46;;;;;;;7.17;1.40;;;10.10;96.30;;;;;;4993860;28;20436;-78
2021/10/24 09:43:26;;;;;;;4.27;1.23;;;9.90;96.30;;;;;;4993098;28;20906;-78
2021/10/24 09:46:14;;;;;;;4.73;1.70;;;9.90;96.30;;;;;;4993129;28;20933;-79
2021/10/24 09:48:46;;;;;;;5.33;1.53;;;9.80;96.30;;;;;;4991847;28;20417;-79
2021/10/24 09:51:16;;;;;;;2.83;0.93;;;9.50;96.30;;;;;;4992209;28;20963;-77
2021/10/24 09:53:45;;;;;;;5.60;1.50;;;9.30;96.30;;;;;;4992738;28;20413;-79
2021/10/24 09:56:18;;;;;;;2.80;1.37;;;9.10;96.30;;;;;;4992870;28;20496;-78
2021/10/24 09:58:47;;;;;;;4.40;1.20;;;9.30;96.30;;;;;;4991315;28;20424;-77
2021/10/24 10:01:18;;;;;;;6.50;1.60;;;9.30;96.30;;;;;;4991884;28;20823;-78
2021/10/24 10:03:48;;;;;;;3.13;1.10;;;9.50;96.30;;;;;;4991164;28;20499;-79
2021/10/24 10:06:23;;;;;;;3.23;1.17;;;9.90;96.30;;;;;;4991539;28;20408;-79
2021/10/24 10:08:49;;;;;;;4.10;1.40;;;10.10;96.30;;;;;;4992511;28;20478;-78
2021/10/24 10:11:42;;;;;;;3.67;1.17;;;10.60;96.20;;;;;;4992067;28;20468;-78
2021/10/24 10:14:19;;;;;;;4.20;1.50;;;10.80;95.30;;;;;;4993240;28;20405;-78
2021/10/24 10:16:51;;;;;;;3.70;1.20;;;10.80;94.40;;;;;;4993737;28;20396;-78
2021/10/24 10:19:30;;;;;;;6.23;1.50;;;11.20;94.10;;;;;;4992805;28;20393;-76
2021/10/24 10:21:56;;;;;;;9.20;1.30;;;11.20;93.00;;;;;;4991520;28;20507;-76
2021/10/24 10:24:33;;;;;;;6.40;1.63;;;11.20;93.20;;;;;;4992731;28;20503;-76
2021/10/24 10:26:59;;;;;;;6.10;1.50;;;11.00;92.40;;;;;;4992731;28;20467;-75
2021/10/24 10:29:48;;;;;;;2.60;1.10;;;11.00;92.30;;;;;;4991352;28;20409;-77
2021/10/24 10:32:16;;;;;;;4.60;1.63;;;10.80;93.60;;;;;;4992023;28;20427;-75
2021/10/24 10:34:57;;;;;;;3.33;1.30;;;11.40;93.90;;;;;;4994921;28;20495;-76
2021/10/24 10:37:51;;;;;;;1.70;0.93;;;11.30;90.60;;;;;;4995266;28;20408;-76
2021/10/24 10:40:24;;;;;;;6.40;1.80;;;11.50;90.20;;;;;;4996223;28;20413;-75
2021/10/24 10:42:51;;;;;;;4.00;1.20;;;11.60;90.90;;;;;;4994553;28;20834;-75
2021/10/24 10:45:16;;;;;;;3.60;1.50;;;11.60;90.80;;;;;;4996257;28;20404;-76
2021/10/24 10:48:04;;;;;;;4.33;1.30;;;11.30;90.10;;;;;;4996529;28;20408;-78
2021/10/24 10:50:30;;;;;;;1.70;1.10;;;11.40;90.90;;;;;;4994776;28;20189;-75
2021/10/24 10:53:01;;;;;;;1.73;1.03;;;11.40;89.50;;;;;;4995721;28;20740;-78
2021/10/24 10:55:47;;;;;;;13.63;1.80;;;11.50;89.30;;;;;;4996180;28;20204;-75
2021/10/24 10:58:36;;;;;;;2.27;1.13;;;11.30;89.10;;;;;;4996004;28;20995;-75
2021/10/24 11:01:03;;;;;;;1.97;1.00;;;11.40;89.20;;;;;;4995518;28;20444;-75
2021/10/24 11:03:46;;;;;;;5.03;0.80;;;11.10;89.50;;;;;;4996407;28;20428;-77
2021/10/24 11:06:23;;;;;;;2.70;1.20;;;11.30;90.40;;;;;;4996218;28;20400;-77
2021/10/24 11:08:57;;;;;;;4.03;1.30;;;11.40;89.30;;;;;;4996370;28;20412;-76
2021/10/24 11:11:43;;;;;;;5.10;1.60;;;11.70;87.70;;;;;;4995519;28;20469;-76
2021/10/24 11:14:15;;;;;;;5.50;1.70;;;11.80;87.00;;;;;;4996404;28;20380;-76
2021/10/24 11:16:44;;;;;;;5.03;1.53;;;12.00;87.00;;;;;;4996033;28;21064;-76
2021/10/24 11:19:36;;;;;;;6.20;1.23;;;11.90;85.90;;;;;;4994974;28;20831;-77
2021/10/24 11:22:11;;;;;;;4.97;1.13;;;11.50;86.40;;;;;;4995569;28;20424;-76
2021/10/24 11:24:54;;;;;;;5.23;1.07;;;11.60;87.10;;;;;;4994826;28;20404;-75
2021/10/24 11:27:22;;;;;;;6.40;1.17;;;11.70;86.60;;;;;;4996010;28;20912;-76
2021/10/24 11:29:52;;;;;;;3.07;1.17;;;11.90;85.10;;;;;;4995795;28;20547;-76
2021/10/24 11:32:33;;;;;;;3.83;1.90;;;12.10;86.50;;;;;;4995086;28;20453;-76
2021/10/24 11:34:59;;;;;;;2.60;0.97;;;12.00;85.40;;;;;;4995768;28;20869;-76
2021/10/24 11:37:41;;;;;;;7.10;1.50;;;11.90;85.50;;;;;;4995744;28;20424;-75
2021/10/24 11:40:11;;;;;;;4.00;1.43;;;11.70;84.90;;;;;;4995836;28;20385;-76
2021/10/24 11:42:37;;;;;;;3.10;1.17;;;11.70;85.40;;;;;;4995189;28;20432;-75
2021/10/24 11:45:19;;;;;;;4.60;1.70;;;11.70;85.20;;;;;;4994536;28;20929;-75
2021/10/24 11:48:08;;;;;;;1.77;1.00;;;11.50;84.90;;;;;;4995571;28;20416;-75
2021/10/24 11:50:41;;;;;;;3.07;1.00;;;11.40;84.70;;;;;;4995264;28;20459;-75
2021/10/24 11:53:07;;;;;;;3.33;1.17;;;11.30;85.30;;;;;;4993713;28;20472;-75
2021/10/24 11:55:34;;;;;;;11.03;1.50;;;11.40;84.90;;;;;;4995553;28;20408;-76
2021/10/24 12:00:51;;;;;;;2.50;1.47;;;11.50;85.00;;;;;;4995264;28;20582;-76
2021/10/24 12:03:25;;;;;;;4.00;1.17;;;11.60;84.90;;;;;;4994540;28;20393;-75
2021/10/24 12:05:51;;;;;;;4.10;1.13;;;11.70;84.90;;;;;;4994865;28;20421;-75
2021/10/24 12:08:17;;;;;;;5.13;2.00;;;11.80;84.70;;;;;;4994719;28;20420;-75
2021/10/24 12:10:50;;;;;;;4.87;1.77;;;11.80;85.40;;;;;;4994551;28;20594;-75
2021/10/24 12:13:36;;;;;;;5.50;1.80;;;12.00;84.80;;;;;;4994163;28;20178;-75
2021/10/24 12:16:03;;;;;;;3.73;1.40;;;12.00;85.40;;;;;;4994781;28;20409;-76
2021/10/24 12:18:38;;;;;;;3.37;1.50;;;12.20;84.00;;;;;;4993337;28;20928;-76
2021/10/24 12:21:04;;;;;;;2.90;1.80;;;12.20;83.50;;;;;;4994054;28;20468;-75
2021/10/24 12:23:34;;;;;;;3.33;1.43;;;12.00;81.90;;;;;;4994518;28;20842;-75
2021/10/24 12:26:02;;;;;;;3.40;1.97;;;11.60;82.70;;;;;;4994529;28;20236;-75
2021/10/24 12:28:32;;;;;;;8.73;2.17;;;11.40;83.80;;;;;;4994506;28;20849;-75
2021/10/24 12:31:02;;;;;;;4.17;1.70;;;11.30;83.20;;;;;;4993870;28;20466;-75
2021/10/24 12:33:34;;;;;;;9.50;2.33;;;11.70;83.70;;;;;;4994407;28;20445;-75
2021/10/24 12:36:03;;;;;;;3.73;1.80;;;11.80;84.10;;;;;;4993152;28;20405;-75
2021/10/24 12:38:55;;;;;;;4.27;2.00;;;11.60;84.60;;;;;;4992610;28;20420;-75
2021/10/24 12:41:44;;;;;;;3.40;1.53;;;11.40;83.50;;;;;;4993626;28;20429;-75
2021/10/24 12:44:17;;;;;;;4.17;2.23;;;11.30;83.70;;;;;;4994159;28;20413;-77
2021/10/24 12:46:43;;;;;;;5.47;1.60;;;11.50;83.40;;;;;;4994109;28;20409;-75
2021/10/24 12:49:18;;;;;;;5.80;2.37;;;11.30;83.10;;;;;;4992693;28;20806;-75
2021/10/24 12:51:49;;;;;;;8.03;3.33;;;11.30;84.20;;;;;;4993374;28;20200;-75
2021/10/24 12:54:31;;;;;;;3.33;2.30;;;11.40;85.70;;;;;;4993896;28;20760;-75
2021/10/24 12:56:57;;;;;;;4.73;2.63;;;11.60;84.80;;;;;;4993489;28;20461;-75
2021/10/24 12:59:23;;;;;;;3.63;1.73;;;11.70;84.60;;;;;;4992606;28;20779;-75
2021/10/24 13:01:50;;;;;;;3.80;2.10;;;11.50;85.70;;;;;;4992931;28;20620;-76
2021/10/24 13:04:16;;;;;;;6.20;2.80;;;11.30;85.20;;;;;;4993728;28;20177;-75
2021/10/24 13:06:41;;;;;;;6.10;2.77;;;11.30;85.60;;;;;;4993655;28;20470;-75
2021/10/24 13:09:07;;;;;;;5.63;2.40;;;11.50;85.40;;;;;;4993701;28;20244;-75
2021/10/24 13:11:33;;;;;;;3.83;2.40;;;11.70;86.60;;;;;;4992581;28;20293;-75
2021/10/24 13:13:59;;;;;;;5.10;2.70;;;11.40;86.00;;;;;;4993478;28;20700;-75
2021/10/24 13:16:25;;;;;;;9.20;2.43;;;11.40;86.90;;;;;;4993418;28;20413;-75
2021/10/24 13:18:51;;;;;;;5.37;2.20;;;11.20;86.40;;;;;;4993358;28;20196;-75
2021/10/24 13:24:03;;;;;;;7.23;3.20;;;10.90;88.50;;;;;;4993720;28;20253;-77
2021/10/24 13:26:31;;;;;;;6.80;2.87;;;11.00;89.20;;;;;;4993672;28;20412;-76
2021/10/24 13:28:57;;;;;;;7.30;3.17;;;11.40;89.60;;;;;;4993513;28;20508;-77
2021/10/24 13:31:22;;;;;;;16.40;2.47;;;11.70;88.80;;;;;;4992787;28;20539;-75
2021/10/24 13:33:48;;;;;;;5.20;2.43;;;11.20;88.90;;;;;;4993400;28;20177;-74
2021/10/24 13:36:14;;;;;;;8.13;2.37;;;11.30;89.50;;;;;;4993706;28;20253;-76
2021/10/24 13:38:39;;;;;;;10.10;2.90;;;11.40;89.50;;;;;;4993492;28;20264;-75
2021/10/24 13:41:05;;;;;;;8.57;3.03;;;11.50;88.90;;;;;;4991347;28;20209;-75
2021/10/24 13:43:31;;;;;;;6.83;2.60;;;11.50;89.10;;;;;;4991706;28;20212;-75
2021/10/24 13:45:56;;;;;;;8.63;3.40;;;11.70;89.10;;;;;;4993315;28;20181;-75
2021/10/24 13:48:22;;;;;;;6.07;3.37;;;11.40;89.50;;;;;;4993358;28;20664;-75
2021/10/24 13:50:48;;;;;;;15.13;3.00;;;11.20;89.90;;;;;;4991568;28;20237;-75
2021/10/24 13:53:14;;;;;;;6.93;3.30;;;10.90;90.10;;;;;;4991426;28;20526;-75
2021/10/24 13:55:39;;;;;;;4.93;2.90;;;11.00;91.30;;;;;;4993364;28;20174;-75
2021/10/24 13:58:05;;;;;;;11.00;3.77;;;11.20;91.00;;;;;;4993197;28;20205;-75
2021/10/24 14:00:30;;;;;;;12.27;4.00;;;11.00;91.60;;;;;;4992039;28;20174;-75
2021/10/24 14:02:57;;;;;;;10.37;3.43;;;11.00;92.10;;;;;;4992866;28;20169;-77
2021/10/24 14:05:22;;;;;;;5.10;2.80;;;11.20;90.00;;;;;;4993195;28;20169;-75
2021/10/24 14:07:48;;;;;;;4.50;2.87;;;11.00;89.10;;;;;;4992275;28;20413;-77
2021/10/24 14:10:16;;;;;;;10.10;2.87;;;11.00;88.40;;;;;;4992955;28;20251;-75
2021/10/24 14:12:42;;;;;;;8.87;3.30;;;11.00;88.50;;;;;;4992498;28;20200;-75
2021/10/24 14:15:10;;;;;;;8.57;3.03;;;10.80;89.30;;;;;;4992981;28;20401;-75
2021/10/24 14:17:35;;;;;;;6.27;3.40;;;10.60;89.80;;;;;;4992954;28;20766;-75
2021/10/24 14:20:01;;;;;;;11.13;3.80;;;10.50;90.20;;;;;;4991306;28;20432;-75
2021/10/24 14:22:27;;;;;;;14.63;3.40;;;10.60;90.00;;;;;;4991050;28;20428;-75
2021/10/24 14:24:53;;;;;;;10.50;3.80;;;10.50;89.90;;;;;;4992935;28;20412;-75
2021/10/24 14:27:19;;;;;;;7.23;3.67;;;10.40;91.20;;;;;;4992812;28;20178;-78
2021/10/24 14:29:45;;;;;;;19.43;9.53;;;10.20;91.20;;;;;;4991631;28;20674;-77
2021/10/24 14:32:11;;;;;;;9.13;3.50;;;10.00;92.20;;;;;;4992204;28;20457;-75
2021/10/24 14:34:40;;;;;;;7.87;3.13;;;9.90;92.90;;;;;;4992768;28;20174;-77
2021/10/24 14:37:07;;;;;;;6.73;3.00;;;9.90;92.40;;;;;;4992647;28;20439;-76
2021/10/24 14:39:33;;;;;;;10.03;3.50;;;9.80;93.10;;;;;;4991461;28;20409;-75
2021/10/24 14:42:00;;;;;;;6.03;3.10;;;9.60;93.80;;;;;;4992149;28;20421;-75
2021/10/24 14:44:26;;;;;;;5.70;3.20;;;9.60;93.90;;;;;;4992545;28;20408;-77
2021/10/24 14:46:52;;;;;;;6.20;3.77;;;9.40;94.30;;;;;;4992908;28;20830;-76
2021/10/24 14:49:18;;;;;;;7.30;3.77;;;9.40;95.00;;;;;;4992651;28;20413;-77
2021/10/24 14:51:44;;;;;;;17.00;9.90;;;9.10;95.50;;;;;;4990442;28;20584;-75
2021/10/24 14:54:10;;;;;;;8.77;4.43;;;9.00;96.30;;;;;;4991462;28;20456;-76
2021/10/24 14:56:36;;;;;;;7.73;4.07;;;9.00;96.30;;;;;;4992674;28;20499;-75
2021/10/24 14:59:02;;;;;;;11.93;4.63;;;9.00;96.30;;;;;;4992757;28;20447;-76
2021/10/24 15:01:28;;;;;;;10.10;4.37;;;8.80;96.30;;;;;;4991912;28;20201;-75
2021/10/24 15:03:53;;;;;;;7.93;4.30;;;8.80;96.30;;;;;;4990932;28;20182;-75
2021/10/24 15:06:19;;;;;;;28.67;16.03;;;8.50;96.30;;;;;;4992524;28;20177;-75
2021/10/24 15:08:45;;;;;;;11.97;9.47;;;8.40;96.30;;;;;;4992639;28;20169;-75
2021/10/24 15:11:11;;;;;;;9.50;6.30;;;8.40;96.30;;;;;;4991720;28;20229;-75
2021/10/24 15:13:40;;;;;;;7.27;4.47;;;8.30;96.30;;;;;;4992345;28;20178;-75
2021/10/24 15:16:18;;;;;;;9.10;4.50;;;8.20;96.30;;;;;;4991338;28;20228;-75
2021/10/24 15:21:14;;;;;;;12.60;5.83;;;8.00;96.30;;;;;;4995510;28;20436;-75
2021/10/24 15:23:41;;;;;;;13.57;6.70;;;7.90;96.30;;;;;;4995950;28;20516;-75
2021/10/24 15:26:08;;;;;;;15.23;6.37;;;7.80;96.30;;;;;;4995860;28;20416;-77
2021/10/24 15:28:34;;;;;;;9.97;6.20;;;7.70;96.30;;;;;;4995744;28;20413;-75
2021/10/24 15:31:02;;;;;;;12.80;7.80;;;7.60;96.30;;;;;;4995250;28;20510;-76
2021/10/24 15:33:28;;;;;;;12.23;7.27;;;7.50;96.30;;;;;;4995493;28;20412;-75
2021/10/24 15:35:53;;;;;;;16.17;7.60;;;7.30;96.30;;;;;;4995877;28;20955;-75
2021/10/24 15:38:20;;;;;;;10.70;6.87;;;7.20;96.30;;;;;;4995644;28;20177;-77
2021/10/24 15:40:45;;;;;;;11.90;6.30;;;7.20;96.30;;;;;;4995622;28;20190;-76
2021/10/24 15:43:12;;;;;;;13.10;7.97;;;7.00;96.30;;;;;;4995102;28;20467;-75
2021/10/24 15:45:38;;;;;;;27.40;14.30;;;7.00;96.30;;;;;;4994303;28;20174;-75
2021/10/24 15:48:05;;;;;;;21.80;12.63;;;6.90;96.30;;;;;;4995354;28;20966;-76
2021/10/24 15:50:31;;;;;;;22.20;9.03;;;6.90;96.30;;;;;;4995262;28;20189;-75
2021/10/24 15:52:56;;;;;;;17.00;9.90;;;6.80;96.30;;;;;;4994870;28;20773;-75
2021/10/24 15:55:22;;;;;;;15.57;8.13;;;6.70;96.30;;;;;;4995433;28;20170;-75
2021/10/24 15:57:47;;;;;;;19.47;7.80;;;6.60;96.30;;;;;;4995166;28;20174;-77
2021/10/24 16:00:15;;;;;;;18.33;9.67;;;6.50;96.30;;;;;;4995196;28;20256;-75
2021/10/24 16:02:40;;;;;;;16.00;8.97;;;6.40;96.30;;;;;;4994439;28;20617;-75
2021/10/24 16:05:06;;;;;;;15.83;7.90;;;6.40;96.30;;;;;;4994895;28;20421;-76
2021/10/24 16:07:33;;;;;;;16.73;7.80;;;6.20;96.30;;;;;;4995111;28;20170;-76
2021/10/24 16:10:00;;;;;;;13.13;8.50;;;6.10;96.30;;;;;;4994621;28;20456;-75
2021/10/24 16:12:26;;;;;;;13.30;7.77;;;6.10;96.30;;;;;;4993254;28;20448;-75
2021/10/24 16:14:52;;;;;;;11.20;6.40;;;6.00;96.30;;;;;;4994187;28;20557;-75
2021/10/24 16:17:17;;;;;;;16.00;9.80;;;6.00;96.30;;;;;;4995517;28;21250;-75
2021/10/24 16:19:43;;;;;;;14.53;8.10;;;6.00;96.30;;;;;;4994777;28;20173;-75
2021/10/24 16:22:08;;;;;;;17.67;8.50;;;5.90;96.30;;;;;;4992985;28;20186;-76
2021/10/24 16:24:34;;;;;;;10.97;6.93;;;5.80;96.30;;;;;;4994803;28;20196;-75
2021/10/24 16:27:00;;;;;;;31.70;19.73;;;5.80;96.30;;;;;;4993464;28;20684;-75
2021/10/24 16:29:25;;;;;;;15.53;8.53;;;5.80;96.30;;;;;;4994929;28;20182;-75
2021/10/24 16:31:53;;;;;;;15.33;7.00;;;5.80;96.30;;;;;;4993232;28;20209;-75
2021/10/24 16:34:19;;;;;;;15.10;8.13;;;5.80;96.30;;;;;;4994613;28;20256;-76
2021/10/24 16:36:45;;;;;;;13.40;7.63;;;5.60;96.30;;;;;;4994422;28;20463;-76
2021/10/24 16:39:11;;;;;;;11.17;7.03;;;5.70;96.30;;;;;;4994298;28;20409;-75
2021/10/24 16:41:36;;;;;;;17.63;10.70;;;5.60;96.30;;;;;;4992526;28;20780;-75
2021/10/24 16:44:05;;;;;;;13.50;7.90;;;5.50;96.30;;;;;;4994233;28;20213;-75
2021/10/24 16:46:30;;;;;;;13.43;8.20;;;5.40;96.30;;;;;;4994195;28;20170;-75
2021/10/24 16:48:56;;;;;;;15.10;7.40;;;5.50;96.30;;;;;;4993796;28;20772;-75
2021/10/24 16:51:21;;;;;;;12.73;7.27;;;5.60;96.30;;;;;;4993387;28;20220;-76
2021/10/24 16:53:47;;;;;;;18.90;7.87;;;5.60;96.30;;;;;;4994107;28;20182;-75
2021/10/24 16:56:13;;;;;;;16.70;8.77;;;5.60;96.30;;;;;;4994043;28;20575;-78
2021/10/24 16:58:39;;;;;;;17.97;9.00;;;5.60;96.30;;;;;;4992693;28;20425;-75
2021/10/24 17:01:04;;;;;;;16.80;9.10;;;5.60;96.30;;;;;;4993178;28;20266;-75
2021/10/24 17:03:30;;;;;;;19.23;9.10;;;5.50;96.30;;;;;;4993845;28;20249;-75